sensor_id;sensor_type;location;lat;lon;timestamp;P1;durP1;ratioP1;P2;durP2;ratioP2
77018;SDS011;66044;53.142;17.962;2024-01-10T00:00:30;29.40;;;14.10;;
77018;SDS011;66044;53.142;17.962;2024-01-10T00:03:17;27.30;;;12.40;;
77018;SDS011;66044;53.142;17.962;2024-01-10T00:05:43;28.80;;;12.50;;
77018;SDS011;66044;53.142;17.962;2024-01-10T00:08:10;26.20;;;13.30;;
77018;SDS011;66044;53.142;17.962;2024-01-10T00:10:36;24.80;;;12.60;;
77018;SDS011;66044;53.142;17.962;2024-01-10T00:13:03;31.40;;;13.70;;
77018;SDS011;66044;53.142;17.962;2024-01-10T00:15:30;27.40;;;12.70;;
77018;SDS011;66044;53.142;17.962;2024-01-10T00:17:56;36.00;;;14.10;;
77018;SDS011;66044;53.142;17.962;2024-01-10T00:20:22;27.30;;;11.70;;
77018;SDS011;66044;53.142;17.962;2024-01-10T00:22:49;25.60;;;10.70;;
77018;SDS011;66044;53.142;17.962;2024-01-10T00:25:15;25.40;;;12.30;;
77018;SDS011;66044;53.142;17.962;2024-01-10T00:27:42;30.60;;;12.90;;
77018;SDS011;66044;53.142;17.962;2024-01-10T00:30:08;27.50;;;12.50;;
77018;SDS011;66044;53.142;17.962;2024-01-10T00:32:34;29.70;;;13.40;;
77018;SDS011;66044;53.142;17.962;2024-01-10T00:35:01;28.00;;;12.10;;
77018;SDS011;66044;53.142;17.962;2024-01-10T00:37:27;28.30;;;12.80;;
77018;SDS011;66044;53.142;17.962;2024-01-10T00:39:54;23.90;;;11.50;;
77018;SDS011;66044;53.142;17.962;2024-01-10T00:42:20;24.50;;;10.20;;
77018;SDS011;66044;53.142;17.962;2024-01-10T00:44:46;23.70;;;10.90;;
77018;SDS011;66044;53.142;17.962;2024-01-10T00:47:13;23.70;;;9.90;;
77018;SDS011;66044;53.142;17.962;2024-01-10T00:49:39;20.50;;;9.60;;
77018;SDS011;66044;53.142;17.962;2024-01-10T00:52:06;22.80;;;10.10;;
77018;SDS011;66044;53.142;17.962;2024-01-10T00:54:32;24.90;;;11.30;;
77018;SDS011;66044;53.142;17.962;2024-01-10T00:56:59;27.60;;;12.10;;
77018;SDS011;66044;53.142;17.962;2024-01-10T00:59:25;23.80;;;10.70;;
77018;SDS011;66044;53.142;17.962;2024-01-10T01:01:51;26.80;;;11.90;;
77018;SDS011;66044;53.142;17.962;2024-01-10T01:04:19;24.10;;;10.20;;
77018;SDS011;66044;53.142;17.962;2024-01-10T01:06:45;32.90;;;14.10;;
77018;SDS011;66044;53.142;17.962;2024-01-10T01:09:11;39.30;;;17.20;;
77018;SDS011;66044;53.142;17.962;2024-01-10T01:11:41;38.20;;;16.70;;
77018;SDS011;66044;53.142;17.962;2024-01-10T01:14:08;39.30;;;17.30;;
77018;SDS011;66044;53.142;17.962;2024-01-10T01:16:34;34.50;;;14.40;;
77018;SDS011;66044;53.142;17.962;2024-01-10T01:19:00;32.30;;;14.20;;
77018;SDS011;66044;53.142;17.962;2024-01-10T01:21:27;38.30;;;15.20;;
77018;SDS011;66044;53.142;17.962;2024-01-10T01:23:54;33.00;;;14.50;;
77018;SDS011;66044;53.142;17.962;2024-01-10T01:26:20;29.50;;;14.90;;
77018;SDS011;66044;53.142;17.962;2024-01-10T01:28:47;29.00;;;13.30;;
77018;SDS011;66044;53.142;17.962;2024-01-10T01:31:13;27.00;;;12.50;;
77018;SDS011;66044;53.142;17.962;2024-01-10T01:33:40;25.40;;;12.90;;
77018;SDS011;66044;53.142;17.962;2024-01-10T01:36:06;28.00;;;13.00;;
77018;SDS011;66044;53.142;17.962;2024-01-10T01:38:33;27.90;;;13.50;;
77018;SDS011;66044;53.142;17.962;2024-01-10T01:40:59;26.40;;;12.60;;
77018;SDS011;66044;53.142;17.962;2024-01-10T01:43:26;25.10;;;12.60;;
77018;SDS011;66044;53.142;17.962;2024-01-10T01:45:53;28.80;;;14.20;;
77018;SDS011;66044;53.142;17.962;2024-01-10T01:48:21;29.90;;;13.80;;
77018;SDS011;66044;53.142;17.962;2024-01-10T01:50:50;27.00;;;12.80;;
77018;SDS011;66044;53.142;17.962;2024-01-10T01:53:18;30.10;;;16.40;;
77018;SDS011;66044;53.142;17.962;2024-01-10T01:55:45;35.00;;;17.90;;
77018;SDS011;66044;53.142;17.962;2024-01-10T01:58:13;30.10;;;15.10;;
77018;SDS011;66044;53.142;17.962;2024-01-10T02:00:40;27.20;;;14.30;;
77018;SDS011;66044;53.142;17.962;2024-01-10T02:03:08;27.00;;;13.80;;
77018;SDS011;66044;53.142;17.962;2024-01-10T02:05:36;24.90;;;12.90;;
77018;SDS011;66044;53.142;17.962;2024-01-10T02:08:03;26.40;;;12.50;;
77018;SDS011;66044;53.142;17.962;2024-01-10T02:10:30;26.60;;;13.30;;
77018;SDS011;66044;53.142;17.962;2024-01-10T02:12:56;23.00;;;11.00;;
77018;SDS011;66044;53.142;17.962;2024-01-10T02:15:23;43.20;;;18.40;;
77018;SDS011;66044;53.142;17.962;2024-01-10T02:17:50;46.50;;;20.60;;
77018;SDS011;66044;53.142;17.962;2024-01-10T02:20:16;42.50;;;19.20;;
77018;SDS011;66044;53.142;17.962;2024-01-10T02:22:43;40.30;;;16.80;;
77018;SDS011;66044;53.142;17.962;2024-01-10T02:25:10;36.80;;;16.60;;
77018;SDS011;66044;53.142;17.962;2024-01-10T02:27:38;34.40;;;13.90;;
77018;SDS011;66044;53.142;17.962;2024-01-10T02:30:05;37.10;;;15.20;;
77018;SDS011;66044;53.142;17.962;2024-01-10T02:32:32;43.00;;;17.00;;
77018;SDS011;66044;53.142;17.962;2024-01-10T02:34:59;33.60;;;15.00;;
77018;SDS011;66044;53.142;17.962;2024-01-10T02:37:26;29.40;;;13.20;;
77018;SDS011;66044;53.142;17.962;2024-01-10T02:39:52;30.50;;;14.60;;
77018;SDS011;66044;53.142;17.962;2024-01-10T02:42:18;29.00;;;12.20;;
77018;SDS011;66044;53.142;17.962;2024-01-10T02:44:45;26.80;;;12.40;;
77018;SDS011;66044;53.142;17.962;2024-01-10T02:47:12;24.60;;;12.00;;
77018;SDS011;66044;53.142;17.962;2024-01-10T02:49:39;24.90;;;11.70;;
77018;SDS011;66044;53.142;17.962;2024-01-10T02:52:05;26.60;;;11.80;;
77018;SDS011;66044;53.142;17.962;2024-01-10T02:54:31;22.60;;;11.30;;
77018;SDS011;66044;53.142;17.962;2024-01-10T02:56:58;32.10;;;15.20;;
77018;SDS011;66044;53.142;17.962;2024-01-10T02:59:24;25.40;;;12.40;;
77018;SDS011;66044;53.142;17.962;2024-01-10T03:01:51;22.70;;;10.80;;
77018;SDS011;66044;53.142;17.962;2024-01-10T03:04:17;26.10;;;13.60;;
77018;SDS011;66044;53.142;17.962;2024-01-10T03:06:44;21.30;;;10.60;;
77018;SDS011;66044;53.142;17.962;2024-01-10T03:09:11;23.40;;;10.90;;
77018;SDS011;66044;53.142;17.962;2024-01-10T03:11:38;18.30;;;9.40;;
77018;SDS011;66044;53.142;17.962;2024-01-10T03:14:08;34.30;;;14.00;;
77018;SDS011;66044;53.142;17.962;2024-01-10T03:16:36;47.60;;;17.00;;
77018;SDS011;66044;53.142;17.962;2024-01-10T03:19:03;46.90;;;19.40;;
77018;SDS011;66044;53.142;17.962;2024-01-10T03:21:30;42.90;;;18.00;;
77018;SDS011;66044;53.142;17.962;2024-01-10T03:23:57;43.30;;;17.70;;
77018;SDS011;66044;53.142;17.962;2024-01-10T03:26:24;33.90;;;14.40;;
77018;SDS011;66044;53.142;17.962;2024-01-10T03:28:51;40.30;;;16.20;;
77018;SDS011;66044;53.142;17.962;2024-01-10T03:31:18;39.80;;;17.40;;
77018;SDS011;66044;53.142;17.962;2024-01-10T03:33:45;33.20;;;14.20;;
77018;SDS011;66044;53.142;17.962;2024-01-10T03:36:12;37.30;;;16.20;;
77018;SDS011;66044;53.142;17.962;2024-01-10T03:38:41;34.80;;;14.70;;
77018;SDS011;66044;53.142;17.962;2024-01-10T03:41:08;36.80;;;15.20;;
77018;SDS011;66044;53.142;17.962;2024-01-10T03:43:39;32.10;;;14.10;;
77018;SDS011;66044;53.142;17.962;2024-01-10T03:46:05;31.30;;;13.00;;
77018;SDS011;66044;53.142;17.962;2024-01-10T03:48:32;36.70;;;16.00;;
77018;SDS011;66044;53.142;17.962;2024-01-10T03:50:58;31.50;;;13.60;;
77018;SDS011;66044;53.142;17.962;2024-01-10T03:53:24;35.10;;;15.20;;
77018;SDS011;66044;53.142;17.962;2024-01-10T03:55:51;32.70;;;14.50;;
77018;SDS011;66044;53.142;17.962;2024-01-10T03:58:17;29.80;;;13.50;;
77018;SDS011;66044;53.142;17.962;2024-01-10T04:00:44;33.30;;;15.80;;
77018;SDS011;66044;53.142;17.962;2024-01-10T04:03:10;35.00;;;13.70;;
77018;SDS011;66044;53.142;17.962;2024-01-10T04:05:37;29.30;;;12.80;;
77018;SDS011;66044;53.142;17.962;2024-01-10T04:08:03;50.80;;;18.00;;
77018;SDS011;66044;53.142;17.962;2024-01-10T04:10:30;48.70;;;19.80;;
77018;SDS011;66044;53.142;17.962;2024-01-10T04:12:56;44.20;;;17.40;;
77018;SDS011;66044;53.142;17.962;2024-01-10T04:15:23;44.20;;;18.50;;
77018;SDS011;66044;53.142;17.962;2024-01-10T04:17:49;41.00;;;17.10;;
77018;SDS011;66044;53.142;17.962;2024-01-10T04:20:16;35.50;;;15.20;;
77018;SDS011;66044;53.142;17.962;2024-01-10T04:22:43;40.40;;;16.30;;
77018;SDS011;66044;53.142;17.962;2024-01-10T04:25:10;35.30;;;15.80;;
77018;SDS011;66044;53.142;17.962;2024-01-10T04:27:37;32.60;;;15.50;;
77018;SDS011;66044;53.142;17.962;2024-01-10T04:30:04;33.60;;;15.50;;
77018;SDS011;66044;53.142;17.962;2024-01-10T04:32:31;32.00;;;15.40;;
77018;SDS011;66044;53.142;17.962;2024-01-10T04:34:58;30.40;;;14.60;;
77018;SDS011;66044;53.142;17.962;2024-01-10T04:37:25;26.90;;;13.00;;
77018;SDS011;66044;53.142;17.962;2024-01-10T04:39:52;27.40;;;12.80;;
77018;SDS011;66044;53.142;17.962;2024-01-10T04:42:19;28.10;;;14.40;;
77018;SDS011;66044;53.142;17.962;2024-01-10T04:44:47;28.30;;;12.20;;
77018;SDS011;66044;53.142;17.962;2024-01-10T04:47:13;29.10;;;13.20;;
77018;SDS011;66044;53.142;17.962;2024-01-10T04:49:40;27.20;;;12.50;;
77018;SDS011;66044;53.142;17.962;2024-01-10T04:52:06;32.60;;;13.80;;
77018;SDS011;66044;53.142;17.962;2024-01-10T04:54:33;25.70;;;12.30;;
77018;SDS011;66044;53.142;17.962;2024-01-10T04:57:00;26.30;;;12.60;;
77018;SDS011;66044;53.142;17.962;2024-01-10T04:59:26;44.70;;;18.10;;
77018;SDS011;66044;53.142;17.962;2024-01-10T05:01:53;44.70;;;19.10;;
77018;SDS011;66044;53.142;17.962;2024-01-10T05:04:19;46.40;;;18.70;;
77018;SDS011;66044;53.142;17.962;2024-01-10T05:06:46;44.90;;;18.10;;
77018;SDS011;66044;53.142;17.962;2024-01-10T05:09:12;41.70;;;17.30;;
77018;SDS011;66044;53.142;17.962;2024-01-10T05:11:39;47.10;;;17.90;;
77018;SDS011;66044;53.142;17.962;2024-01-10T05:14:05;41.50;;;17.00;;
77018;SDS011;66044;53.142;17.962;2024-01-10T05:16:32;39.90;;;16.30;;
77018;SDS011;66044;53.142;17.962;2024-01-10T05:19:00;38.30;;;17.20;;
77018;SDS011;66044;53.142;17.962;2024-01-10T05:21:30;34.50;;;15.90;;
77018;SDS011;66044;53.142;17.962;2024-01-10T05:23:58;26.60;;;13.20;;
77018;SDS011;66044;53.142;17.962;2024-01-10T05:26:25;31.10;;;14.50;;
77018;SDS011;66044;53.142;17.962;2024-01-10T05:28:51;26.80;;;13.80;;
77018;SDS011;66044;53.142;17.962;2024-01-10T05:31:17;29.90;;;13.20;;
77018;SDS011;66044;53.142;17.962;2024-01-10T05:33:44;26.60;;;12.90;;
77018;SDS011;66044;53.142;17.962;2024-01-10T05:36:10;33.90;;;15.00;;
77018;SDS011;66044;53.142;17.962;2024-01-10T05:38:40;30.50;;;13.10;;
77018;SDS011;66044;53.142;17.962;2024-01-10T05:41:06;34.80;;;16.40;;
77018;SDS011;66044;53.142;17.962;2024-01-10T05:43:32;27.00;;;13.20;;
77018;SDS011;66044;53.142;17.962;2024-01-10T05:45:59;28.20;;;13.30;;
77018;SDS011;66044;53.142;17.962;2024-01-10T05:48:26;28.40;;;14.00;;
77018;SDS011;66044;53.142;17.962;2024-01-10T05:50:52;44.00;;;19.80;;
77018;SDS011;66044;53.142;17.962;2024-01-10T05:53:23;47.60;;;19.20;;
77018;SDS011;66044;53.142;17.962;2024-01-10T05:55:51;44.70;;;18.40;;
77018;SDS011;66044;53.142;17.962;2024-01-10T05:58:17;38.50;;;16.70;;
77018;SDS011;66044;53.142;17.962;2024-01-10T06:00:43;44.10;;;16.40;;
77018;SDS011;66044;53.142;17.962;2024-01-10T06:03:10;46.30;;;17.90;;
77018;SDS011;66044;53.142;17.962;2024-01-10T06:05:37;41.90;;;17.20;;
77018;SDS011;66044;53.142;17.962;2024-01-10T06:08:03;41.60;;;17.30;;
77018;SDS011;66044;53.142;17.962;2024-01-10T06:10:30;38.90;;;16.50;;
77018;SDS011;66044;53.142;17.962;2024-01-10T06:12:57;34.00;;;15.20;;
77018;SDS011;66044;53.142;17.962;2024-01-10T06:15:23;31.70;;;15.50;;
77018;SDS011;66044;53.142;17.962;2024-01-10T06:17:50;34.60;;;16.90;;
77018;SDS011;66044;53.142;17.962;2024-01-10T06:20:16;29.10;;;15.60;;
77018;SDS011;66044;53.142;17.962;2024-01-10T06:22:44;30.80;;;15.40;;
77018;SDS011;66044;53.142;17.962;2024-01-10T06:25:12;29.70;;;15.10;;
77018;SDS011;66044;53.142;17.962;2024-01-10T06:27:39;29.60;;;14.00;;
77018;SDS011;66044;53.142;17.962;2024-01-10T06:30:06;33.80;;;15.90;;
77018;SDS011;66044;53.142;17.962;2024-01-10T06:32:34;32.80;;;13.80;;
77018;SDS011;66044;53.142;17.962;2024-01-10T06:35:01;30.60;;;13.60;;
77018;SDS011;66044;53.142;17.962;2024-01-10T06:37:28;32.80;;;15.50;;
77018;SDS011;66044;53.142;17.962;2024-01-10T06:39:54;34.10;;;16.20;;
77018;SDS011;66044;53.142;17.962;2024-01-10T06:42:21;25.20;;;13.20;;
77018;SDS011;66044;53.142;17.962;2024-01-10T06:44:47;39.70;;;16.40;;
77018;SDS011;66044;53.142;17.962;2024-01-10T06:47:14;45.80;;;18.50;;
77018;SDS011;66044;53.142;17.962;2024-01-10T06:49:41;39.00;;;15.10;;
77018;SDS011;66044;53.142;17.962;2024-01-10T06:52:07;40.10;;;16.00;;
77018;SDS011;66044;53.142;17.962;2024-01-10T06:54:34;41.50;;;17.30;;
77018;SDS011;66044;53.142;17.962;2024-01-10T06:57:01;34.40;;;14.60;;
77018;SDS011;66044;53.142;17.962;2024-01-10T06:59:27;41.10;;;15.80;;
77018;SDS011;66044;53.142;17.962;2024-01-10T07:01:54;41.40;;;18.10;;
77018;SDS011;66044;53.142;17.962;2024-01-10T07:04:23;36.10;;;16.70;;
77018;SDS011;66044;53.142;17.962;2024-01-10T07:06:51;29.60;;;14.30;;
77018;SDS011;66044;53.142;17.962;2024-01-10T07:09:18;31.40;;;15.30;;
77018;SDS011;66044;53.142;17.962;2024-01-10T07:11:48;51.30;;;17.80;;
77018;SDS011;66044;53.142;17.962;2024-01-10T07:14:15;49.60;;;20.10;;
77018;SDS011;66044;53.142;17.962;2024-01-10T07:16:42;46.30;;;18.50;;
77018;SDS011;66044;53.142;17.962;2024-01-10T07:19:12;42.40;;;19.30;;
77018;SDS011;66044;53.142;17.962;2024-01-10T07:21:42;37.10;;;17.60;;
77018;SDS011;66044;53.142;17.962;2024-01-10T07:24:09;24.00;;;11.30;;
77018;SDS011;66044;53.142;17.962;2024-01-10T07:26:38;29.40;;;13.70;;
77018;SDS011;66044;53.142;17.962;2024-01-10T07:29:07;22.30;;;12.10;;
77018;SDS011;66044;53.142;17.962;2024-01-10T07:31:36;32.60;;;14.80;;
77018;SDS011;66044;53.142;17.962;2024-01-10T07:34:02;34.90;;;19.90;;
77018;SDS011;66044;53.142;17.962;2024-01-10T07:36:31;45.20;;;19.10;;
77018;SDS011;66044;53.142;17.962;2024-01-10T07:39:00;45.20;;;18.10;;
77018;SDS011;66044;53.142;17.962;2024-01-10T07:41:26;40.40;;;17.10;;
77018;SDS011;66044;53.142;17.962;2024-01-10T07:43:53;36.50;;;14.30;;
77018;SDS011;66044;53.142;17.962;2024-01-10T07:46:19;37.40;;;15.20;;
77018;SDS011;66044;53.142;17.962;2024-01-10T07:48:46;36.50;;;13.80;;
77018;SDS011;66044;53.142;17.962;2024-01-10T07:51:12;28.80;;;11.80;;
77018;SDS011;66044;53.142;17.962;2024-01-10T07:53:39;33.90;;;14.40;;
77018;SDS011;66044;53.142;17.962;2024-01-10T07:56:05;27.90;;;12.20;;
77018;SDS011;66044;53.142;17.962;2024-01-10T07:58:32;23.50;;;11.00;;
77018;SDS011;66044;53.142;17.962;2024-01-10T08:00:58;23.00;;;10.70;;
77018;SDS011;66044;53.142;17.962;2024-01-10T08:03:25;24.50;;;12.20;;
77018;SDS011;66044;53.142;17.962;2024-01-10T08:05:51;20.60;;;10.60;;
77018;SDS011;66044;53.142;17.962;2024-01-10T08:08:18;21.80;;;10.70;;
77018;SDS011;66044;53.142;17.962;2024-01-10T08:10:44;20.90;;;10.30;;
77018;SDS011;66044;53.142;17.962;2024-01-10T08:13:12;21.00;;;9.60;;
77018;SDS011;66044;53.142;17.962;2024-01-10T08:15:40;17.10;;;8.30;;
77018;SDS011;66044;53.142;17.962;2024-01-10T08:18:07;20.90;;;10.70;;
77018;SDS011;66044;53.142;17.962;2024-01-10T08:20:36;18.00;;;8.90;;
77018;SDS011;66044;53.142;17.962;2024-01-10T08:23:02;30.80;;;14.90;;
77018;SDS011;66044;53.142;17.962;2024-01-10T08:25:30;29.90;;;15.00;;
77018;SDS011;66044;53.142;17.962;2024-01-10T08:27:57;25.00;;;13.80;;
77018;SDS011;66044;53.142;17.962;2024-01-10T08:30:25;33.10;;;15.80;;
77018;SDS011;66044;53.142;17.962;2024-01-10T08:32:51;37.10;;;18.10;;
77018;SDS011;66044;53.142;17.962;2024-01-10T08:35:18;32.30;;;15.20;;
77018;SDS011;66044;53.142;17.962;2024-01-10T08:37:45;33.80;;;15.40;;
77018;SDS011;66044;53.142;17.962;2024-01-10T08:40:12;33.60;;;14.50;;
77018;SDS011;66044;53.142;17.962;2024-01-10T08:42:41;25.60;;;13.30;;
77018;SDS011;66044;53.142;17.962;2024-01-10T08:45:08;20.40;;;11.60;;
77018;SDS011;66044;53.142;17.962;2024-01-10T08:47:37;22.60;;;11.10;;
77018;SDS011;66044;53.142;17.962;2024-01-10T08:50:04;24.00;;;11.80;;
77018;SDS011;66044;53.142;17.962;2024-01-10T08:52:31;20.10;;;9.60;;
77018;SDS011;66044;53.142;17.962;2024-01-10T08:54:58;23.30;;;11.10;;
77018;SDS011;66044;53.142;17.962;2024-01-10T08:57:24;22.00;;;11.10;;
77018;SDS011;66044;53.142;17.962;2024-01-10T08:59:56;15.70;;;8.90;;
77018;SDS011;66044;53.142;17.962;2024-01-10T09:02:22;20.50;;;9.90;;
77018;SDS011;66044;53.142;17.962;2024-01-10T09:04:49;17.30;;;9.30;;
77018;SDS011;66044;53.142;17.962;2024-01-10T09:07:16;20.60;;;11.00;;
77018;SDS011;66044;53.142;17.962;2024-01-10T09:09:44;27.90;;;12.20;;
77018;SDS011;66044;53.142;17.962;2024-01-10T09:12:11;35.70;;;14.90;;
77018;SDS011;66044;53.142;17.962;2024-01-10T09:14:37;30.50;;;12.70;;
77018;SDS011;66044;53.142;17.962;2024-01-10T09:17:05;25.90;;;12.00;;
77018;SDS011;66044;53.142;17.962;2024-01-10T09:19:32;24.40;;;11.50;;
77018;SDS011;66044;53.142;17.962;2024-01-10T09:21:58;23.40;;;10.70;;
77018;SDS011;66044;53.142;17.962;2024-01-10T09:24:25;24.00;;;10.70;;
77018;SDS011;66044;53.142;17.962;2024-01-10T09:26:55;22.10;;;10.40;;
77018;SDS011;66044;53.142;17.962;2024-01-10T09:29:23;23.90;;;11.60;;
77018;SDS011;66044;53.142;17.962;2024-01-10T09:31:52;22.10;;;10.00;;
77018;SDS011;66044;53.142;17.962;2024-01-10T09:34:18;18.80;;;9.40;;
77018;SDS011;66044;53.142;17.962;2024-01-10T09:36:45;19.30;;;10.50;;
77018;SDS011;66044;53.142;17.962;2024-01-10T09:39:11;26.90;;;13.10;;
77018;SDS011;66044;53.142;17.962;2024-01-10T09:41:45;22.50;;;10.40;;
77018;SDS011;66044;53.142;17.962;2024-01-10T09:44:17;21.70;;;9.90;;
77018;SDS011;66044;53.142;17.962;2024-01-10T09:46:45;21.90;;;10.10;;
77018;SDS011;66044;53.142;17.962;2024-01-10T09:49:15;29.00;;;15.00;;
77018;SDS011;66044;53.142;17.962;2024-01-10T09:51:42;47.40;;;23.40;;
77018;SDS011;66044;53.142;17.962;2024-01-10T09:54:13;33.50;;;15.00;;
77018;SDS011;66044;53.142;17.962;2024-01-10T09:56:42;34.10;;;15.00;;
77018;SDS011;66044;53.142;17.962;2024-01-10T09:59:08;40.60;;;15.10;;
77018;SDS011;66044;53.142;17.962;2024-01-10T10:01:37;30.50;;;14.00;;
77018;SDS011;66044;53.142;17.962;2024-01-10T10:04:07;31.00;;;13.20;;
77018;SDS011;66044;53.142;17.962;2024-01-10T10:06:37;31.30;;;14.00;;
77018;SDS011;66044;53.142;17.962;2024-01-10T10:09:04;20.00;;;10.00;;
77018;SDS011;66044;53.142;17.962;2024-01-10T10:11:31;18.80;;;9.40;;
77018;SDS011;66044;53.142;17.962;2024-01-10T10:14:04;18.40;;;8.90;;
77018;SDS011;66044;53.142;17.962;2024-01-10T10:16:41;18.60;;;9.20;;
77018;SDS011;66044;53.142;17.962;2024-01-10T10:19:07;18.00;;;10.00;;
77018;SDS011;66044;53.142;17.962;2024-01-10T10:21:35;23.20;;;11.50;;
77018;SDS011;66044;53.142;17.962;2024-01-10T10:24:02;18.70;;;8.70;;
77018;SDS011;66044;53.142;17.962;2024-01-10T10:26:35;21.90;;;10.60;;
77018;SDS011;66044;53.142;17.962;2024-01-10T10:29:03;19.00;;;9.80;;
77018;SDS011;66044;53.142;17.962;2024-01-10T10:31:30;18.40;;;8.40;;
77018;SDS011;66044;53.142;17.962;2024-01-10T10:33:59;25.00;;;11.70;;
77018;SDS011;66044;53.142;17.962;2024-01-10T10:36:30;33.60;;;13.70;;
77018;SDS011;66044;53.142;17.962;2024-01-10T10:38:59;26.80;;;11.00;;
77018;SDS011;66044;53.142;17.962;2024-01-10T10:41:30;26.30;;;10.90;;
77018;SDS011;66044;53.142;17.962;2024-01-10T10:43:57;26.30;;;10.20;;
77018;SDS011;66044;53.142;17.962;2024-01-10T10:46:27;22.90;;;10.10;;
77018;SDS011;66044;53.142;17.962;2024-01-10T10:48:53;23.20;;;10.40;;
77018;SDS011;66044;53.142;17.962;2024-01-10T10:51:32;19.60;;;9.30;;
77018;SDS011;66044;53.142;17.962;2024-01-10T10:53:59;18.50;;;8.90;;
77018;SDS011;66044;53.142;17.962;2024-01-10T10:56:30;18.20;;;9.30;;
77018;SDS011;66044;53.142;17.962;2024-01-10T10:58:58;17.80;;;8.60;;
77018;SDS011;66044;53.142;17.962;2024-01-10T11:01:29;16.90;;;8.70;;
77018;SDS011;66044;53.142;17.962;2024-01-10T11:03:56;14.60;;;6.90;;
77018;SDS011;66044;53.142;17.962;2024-01-10T11:06:23;14.90;;;7.40;;
77018;SDS011;66044;53.142;17.962;2024-01-10T11:08:51;20.00;;;10.10;;
77018;SDS011;66044;53.142;17.962;2024-01-10T11:11:36;17.10;;;7.90;;
77018;SDS011;66044;53.142;17.962;2024-01-10T11:17:36;28.50;;;10.70;;
77018;SDS011;66044;53.142;17.962;2024-01-10T11:20:30;24.50;;;9.90;;
77018;SDS011;66044;53.142;17.962;2024-01-10T11:26:01;21.10;;;9.60;;
77018;SDS011;66044;53.142;17.962;2024-01-10T11:28:32;15.70;;;7.70;;
77018;SDS011;66044;53.142;17.962;2024-01-10T11:30:59;14.40;;;7.00;;
77018;SDS011;66044;53.142;17.962;2024-01-10T11:33:33;14.40;;;6.50;;
77018;SDS011;66044;53.142;17.962;2024-01-10T11:36:11;16.40;;;7.10;;
77018;SDS011;66044;53.142;17.962;2024-01-10T11:38:43;13.50;;;6.10;;
77018;SDS011;66044;53.142;17.962;2024-01-10T11:41:11;15.70;;;5.60;;
77018;SDS011;66044;53.142;17.962;2024-01-10T11:43:39;12.30;;;5.20;;
77018;SDS011;66044;53.142;17.962;2024-01-10T11:46:06;13.00;;;6.40;;
77018;SDS011;66044;53.142;17.962;2024-01-10T11:48:32;16.00;;;6.10;;
77018;SDS011;66044;53.142;17.962;2024-01-10T11:50:59;17.90;;;7.30;;
77018;SDS011;66044;53.142;17.962;2024-01-10T11:53:39;18.80;;;7.60;;
77018;SDS011;66044;53.142;17.962;2024-01-10T11:56:13;19.80;;;8.10;;
77018;SDS011;66044;53.142;17.962;2024-01-10T12:01:21;15.90;;;7.20;;
77018;SDS011;66044;53.142;17.962;2024-01-10T12:03:51;15.40;;;8.00;;
77018;SDS011;66044;53.142;17.962;2024-01-10T12:06:19;15.20;;;7.10;;
77018;SDS011;66044;53.142;17.962;2024-01-10T12:08:48;18.90;;;8.20;;
77018;SDS011;66044;53.142;17.962;2024-01-10T12:11:15;19.10;;;9.60;;
77018;SDS011;66044;53.142;17.962;2024-01-10T12:13:42;18.50;;;8.30;;
77018;SDS011;66044;53.142;17.962;2024-01-10T12:16:12;15.10;;;7.30;;
77018;SDS011;66044;53.142;17.962;2024-01-10T12:18:43;13.90;;;5.80;;
77018;SDS011;66044;53.142;17.962;2024-01-10T12:21:10;20.10;;;8.70;;
77018;SDS011;66044;53.142;17.962;2024-01-10T12:23:36;23.90;;;9.50;;
77018;SDS011;66044;53.142;17.962;2024-01-10T12:26:10;22.60;;;8.00;;
77018;SDS011;66044;53.142;17.962;2024-01-10T12:28:40;22.80;;;9.00;;
77018;SDS011;66044;53.142;17.962;2024-01-10T12:31:08;22.30;;;9.40;;
77018;SDS011;66044;53.142;17.962;2024-01-10T12:33:38;21.30;;;9.50;;
77018;SDS011;66044;53.142;17.962;2024-01-10T12:36:09;18.30;;;7.20;;
77018;SDS011;66044;53.142;17.962;2024-01-10T12:38:37;14.10;;;6.20;;
77018;SDS011;66044;53.142;17.962;2024-01-10T12:41:05;15.30;;;6.90;;
77018;SDS011;66044;53.142;17.962;2024-01-10T12:43:35;15.00;;;5.70;;
77018;SDS011;66044;53.142;17.962;2024-01-10T12:46:05;14.00;;;5.90;;
77018;SDS011;66044;53.142;17.962;2024-01-10T12:48:39;14.40;;;6.70;;
77018;SDS011;66044;53.142;17.962;2024-01-10T12:51:10;13.60;;;7.10;;
77018;SDS011;66044;53.142;17.962;2024-01-10T12:53:39;11.00;;;5.10;;
77018;SDS011;66044;53.142;17.962;2024-01-10T12:56:08;21.60;;;7.90;;
77018;SDS011;66044;53.142;17.962;2024-01-10T12:58:40;20.40;;;7.80;;
77018;SDS011;66044;53.142;17.962;2024-01-10T13:01:11;23.00;;;9.60;;
77018;SDS011;66044;53.142;17.962;2024-01-10T13:03:38;21.20;;;8.40;;
77018;SDS011;66044;53.142;17.962;2024-01-10T13:06:06;17.60;;;7.90;;
77018;SDS011;66044;53.142;17.962;2024-01-10T13:08:34;15.90;;;7.40;;
77018;SDS011;66044;53.142;17.962;2024-01-10T13:11:00;15.90;;;7.10;;
77018;SDS011;66044;53.142;17.962;2024-01-10T13:13:30;15.20;;;7.40;;
77018;SDS011;66044;53.142;17.962;2024-01-10T13:16:01;15.50;;;7.70;;
77018;SDS011;66044;53.142;17.962;2024-01-10T13:18:28;18.00;;;9.10;;
77018;SDS011;66044;53.142;17.962;2024-01-10T13:20:57;18.50;;;8.30;;
77018;SDS011;66044;53.142;17.962;2024-01-10T13:23:24;18.90;;;8.00;;
77018;SDS011;66044;53.142;17.962;2024-01-10T13:25:52;17.00;;;7.40;;
77018;SDS011;66044;53.142;17.962;2024-01-10T13:28:19;13.80;;;6.20;;
77018;SDS011;66044;53.142;17.962;2024-01-10T13:30:45;17.40;;;8.10;;
77018;SDS011;66044;53.142;17.962;2024-01-10T13:33:12;19.80;;;8.50;;
77018;SDS011;66044;53.142;17.962;2024-01-10T13:35:38;13.90;;;7.60;;
77018;SDS011;66044;53.142;17.962;2024-01-10T13:38:05;30.70;;;11.70;;
77018;SDS011;66044;53.142;17.962;2024-01-10T13:40:32;24.20;;;10.80;;
77018;SDS011;66044;53.142;17.962;2024-01-10T13:43:00;25.20;;;9.40;;
77018;SDS011;66044;53.142;17.962;2024-01-10T13:45:30;30.60;;;12.30;;
77018;SDS011;66044;53.142;17.962;2024-01-10T13:47:56;33.00;;;12.40;;
77018;SDS011;66044;53.142;17.962;2024-01-10T13:50:23;38.00;;;16.90;;
77018;SDS011;66044;53.142;17.962;2024-01-10T13:52:51;29.20;;;14.00;;
77018;SDS011;66044;53.142;17.962;2024-01-10T13:55:20;19.70;;;8.90;;
77018;SDS011;66044;53.142;17.962;2024-01-10T13:57:47;25.70;;;11.90;;
77018;SDS011;66044;53.142;17.962;2024-01-10T14:00:14;20.80;;;11.10;;
77018;SDS011;66044;53.142;17.962;2024-01-10T14:02:41;25.20;;;12.10;;
77018;SDS011;66044;53.142;17.962;2024-01-10T14:05:08;25.80;;;13.40;;
77018;SDS011;66044;53.142;17.962;2024-01-10T14:07:36;23.90;;;12.30;;
77018;SDS011;66044;53.142;17.962;2024-01-10T14:10:03;18.60;;;9.20;;
77018;SDS011;66044;53.142;17.962;2024-01-10T14:12:31;16.30;;;8.30;;
77018;SDS011;66044;53.142;17.962;2024-01-10T14:14:57;19.20;;;8.80;;
77018;SDS011;66044;53.142;17.962;2024-01-10T14:17:26;19.70;;;9.80;;
77018;SDS011;66044;53.142;17.962;2024-01-10T14:19:53;26.90;;;12.60;;
77018;SDS011;66044;53.142;17.962;2024-01-10T14:22:19;32.90;;;15.90;;